Valparaiso, FL

3:24 PM CST on December 28, 2014 (GMT -0600)
Destin-Fort Walton Beach | Change Station
CLOSE
Current Station
Airport
Location: Destin,
Elevation: 23 ft
Nearby Weather Stations

Elev 23 ft 30.39 °N, 86.47 °W | Updated 6 minutes ago

Mostly Cloudy
Mostly Cloudy
71 °F
Feels Like 71 °F
N
4
Wind Variable Wind from Variable

Today
High -- | Low -- °F
--% Chance of Precip.
Yesterday
High -- | Low -- °F
Precip. -- in
6:41 AM 4:53 PM
Waxing Crescent, 51% visible
Pressure 30.03 in
Visibility 9.0 miles
Clouds Scattered Clouds 700 ft
Mostly Cloudy 1600 ft
Overcast 8000 ft
Dew Point 69 °F
Humidity 93%
Rainfall 0.02 in
Snow Depth Not available.
UV 0 out of 12
Pollen 1.30 out of 12
Air Quality Not available.
Flu Activity Not available.
SPECI KDTS 282118Z AUTO VRB03KT 9SM SCT007 BKN016 OVC080 22/21 A3003 RMK AO2 T02170206 TSNO

More Conditions Fewer Conditions

Pressure 30.03 in
Visibility 9.0 miles
Clouds Scattered Clouds 700 ft
Mostly Cloudy 1600 ft
Overcast 8000 ft
Dew Point 69 °F
Humidity 93%
Rainfall 0.02 in
Snow Depth Not available.
UV 0 out of 12
Pollen 1.30 out of 12
Air Quality Not available.
Flu Activity Not available.
SPECI KDTS 282118Z AUTO VRB03KT 9SM SCT007 BKN016 OVC080 22/21 A3003 RMK AO2 T02170206 TSNO

More Conditions Fewer Conditions

10-Day Weather Forecast

Almanac

Astronomy

Dec. 28, 2014 Rise Set
Actual Time
Civil Twilight
Nautical Twilight
Astronomical Twilight
Moon
Length of Visible Light
Length of Day
Tomorrow will be .
, % of the Moon is Illuminated

Today's Extremes

State Highs State Lows

Community

WunderPhotos

Upload Photos

1,781,431 photos uploaded!

WunderBlogs® & News

Nearby

Air Quality

  Air Quality AQ Index Pollutant
Not available.

Snow Depth

Station Depth Elevation

Earthquake Activity

City Distance Mag. Time & Date
Minimum magnitude displayed is 2.5.

Coastal Water Temperatures

Place Temperature

Nearby Weather Stations